sensor_id;sensor_type;location;lat;lon;timestamp;temperature;humidity
33803;DHT22;20110;53.120;5.786;2022-11-15T00:00:43;5.90;99.90
33803;DHT22;20110;53.120;5.786;2022-11-15T00:03:09;5.80;99.90
33803;DHT22;20110;53.120;5.786;2022-11-15T00:05:35;5.80;99.90
33803;DHT22;20110;53.120;5.786;2022-11-15T00:08:01;5.80;99.90
33803;DHT22;20110;53.120;5.786;2022-11-15T00:10:27;5.70;99.90
33803;DHT22;20110;53.120;5.786;2022-11-15T00:12:53;5.80;99.90
33803;DHT22;20110;53.120;5.786;2022-11-15T00:15:19;5.80;99.90
33803;DHT22;20110;53.120;5.786;2022-11-15T00:17:46;5.70;99.90
33803;DHT22;20110;53.120;5.786;2022-11-15T00:20:14;5.70;99.90
33803;DHT22;20110;53.120;5.786;2022-11-15T00:22:40;5.80;99.90
33803;DHT22;20110;53.120;5.786;2022-11-15T00:25:06;5.70;99.90
33803;DHT22;20110;53.120;5.786;2022-11-15T00:27:32;5.70;99.90
33803;DHT22;20110;53.120;5.786;2022-11-15T00:29:58;5.60;99.90
33803;DHT22;20110;53.120;5.786;2022-11-15T00:32:23;5.60;99.90
33803;DHT22;20110;53.120;5.786;2022-11-15T00:34:49;5.70;99.90
33803;DHT22;20110;53.120;5.786;2022-11-15T00:37:15;5.60;99.90
33803;DHT22;20110;53.120;5.786;2022-11-15T00:39:41;5.60;99.90
33803;DHT22;20110;53.120;5.786;2022-11-15T00:42:06;5.50;99.90
33803;DHT22;20110;53.120;5.786;2022-11-15T00:44:32;5.50;99.90
33803;DHT22;20110;53.120;5.786;2022-11-15T00:46:58;5.50;99.90
33803;DHT22;20110;53.120;5.786;2022-11-15T00:49:24;5.60;99.90
33803;DHT22;20110;53.120;5.786;2022-11-15T00:51:49;5.50;99.90
33803;DHT22;20110;53.120;5.786;2022-11-15T00:54:15;5.40;99.90
33803;DHT22;20110;53.120;5.786;2022-11-15T00:56:41;5.40;99.90
33803;DHT22;20110;53.120;5.786;2022-11-15T00:59:07;5.40;99.90
33803;DHT22;20110;53.120;5.786;2022-11-15T01:01:32;5.50;99.90
33803;DHT22;20110;53.120;5.786;2022-11-15T01:03:58;5.50;99.90
33803;DHT22;20110;53.120;5.786;2022-11-15T01:06:24;5.40;99.90
33803;DHT22;20110;53.120;5.786;2022-11-15T01:08:50;5.50;99.90
33803;DHT22;20110;53.120;5.786;2022-11-15T01:11:16;5.40;99.90
33803;DHT22;20110;53.120;5.786;2022-11-15T01:13:41;5.40;99.90
33803;DHT22;20110;53.120;5.786;2022-11-15T01:16:10;5.30;99.90
33803;DHT22;20110;53.120;5.786;2022-11-15T01:18:39;5.20;99.90
33803;DHT22;20110;53.120;5.786;2022-11-15T01:21:08;5.00;99.90
33803;DHT22;20110;53.120;5.786;2022-11-15T01:23:39;5.00;99.90
33803;DHT22;20110;53.120;5.786;2022-11-15T01:26:07;4.90;99.90
33803;DHT22;20110;53.120;5.786;2022-11-15T01:28:36;4.90;99.90
33803;DHT22;20110;53.120;5.786;2022-11-15T01:31:06;5.00;99.90
33803;DHT22;20110;53.120;5.786;2022-11-15T01:33:36;4.80;99.90
33803;DHT22;20110;53.120;5.786;2022-11-15T01:36:07;4.80;99.90
33803;DHT22;20110;53.120;5.786;2022-11-15T01:38:36;4.80;99.90
33803;DHT22;20110;53.120;5.786;2022-11-15T01:41:02;4.80;99.90
33803;DHT22;20110;53.120;5.786;2022-11-15T01:43:34;4.70;99.90
33803;DHT22;20110;53.120;5.786;2022-11-15T01:49:19;4.70;99.90
33803;DHT22;20110;53.120;5.786;2022-11-15T01:51:47;4.70;99.90
33803;DHT22;20110;53.120;5.786;2022-11-15T01:54:20;4.60;99.90
33803;DHT22;20110;53.120;5.786;2022-11-15T01:56:55;4.50;99.90
33803;DHT22;20110;53.120;5.786;2022-11-15T01:59:25;4.50;99.90
33803;DHT22;20110;53.120;5.786;2022-11-15T02:01:51;4.50;99.90
33803;DHT22;20110;53.120;5.786;2022-11-15T02:04:24;4.50;99.90
33803;DHT22;20110;53.120;5.786;2022-11-15T02:06:53;4.50;99.90
33803;DHT22;20110;53.120;5.786;2022-11-15T02:09:19;4.70;99.90
33803;DHT22;20110;53.120;5.786;2022-11-15T02:11:46;4.60;99.90
33803;DHT22;20110;53.120;5.786;2022-11-15T02:14:15;4.60;99.90
33803;DHT22;20110;53.120;5.786;2022-11-15T02:16:57;4.60;99.90
33803;DHT22;20110;53.120;5.786;2022-11-15T02:31:59;4.70;99.90
33803;DHT22;20110;53.120;5.786;2022-11-15T02:34:43;4.60;99.90
33803;DHT22;20110;53.120;5.786;2022-11-15T02:37:49;4.70;99.90
33803;DHT22;20110;53.120;5.786;2022-11-15T02:40:38;4.60;99.90
33803;DHT22;20110;53.120;5.786;2022-11-15T02:43:12;4.60;99.90
33803;DHT22;20110;53.120;5.786;2022-11-15T02:46:12;4.70;99.90
33803;DHT22;20110;53.120;5.786;2022-11-15T02:48:43;4.80;99.90
33803;DHT22;20110;53.120;5.786;2022-11-15T02:51:10;4.80;99.90
33803;DHT22;20110;53.120;5.786;2022-11-15T02:53:38;4.90;99.90
33803;DHT22;20110;53.120;5.786;2022-11-15T02:56:04;4.80;99.90
33803;DHT22;20110;53.120;5.786;2022-11-15T02:58:40;4.90;99.90
33803;DHT22;20110;53.120;5.786;2022-11-15T03:04:23;4.90;99.90
33803;DHT22;20110;53.120;5.786;2022-11-15T03:07:06;4.70;99.90
33803;DHT22;20110;53.120;5.786;2022-11-15T03:09:54;4.60;99.90
33803;DHT22;20110;53.120;5.786;2022-11-15T03:12:33;4.60;99.90
33803;DHT22;20110;53.120;5.786;2022-11-15T03:15:15;4.60;99.90
33803;DHT22;20110;53.120;5.786;2022-11-15T03:18:19;4.90;99.90
33803;DHT22;20110;53.120;5.786;2022-11-15T03:20:52;4.90;99.90
33803;DHT22;20110;53.120;5.786;2022-11-15T03:23:20;4.90;99.90
33803;DHT22;20110;53.120;5.786;2022-11-15T03:25:48;4.70;99.90
33803;DHT22;20110;53.120;5.786;2022-11-15T03:28:22;4.80;99.90
33803;DHT22;20110;53.120;5.786;2022-11-15T03:30:52;4.70;99.90
33803;DHT22;20110;53.120;5.786;2022-11-15T03:33:21;4.70;99.90
33803;DHT22;20110;53.120;5.786;2022-11-15T03:35:48;4.90;99.90
33803;DHT22;20110;53.120;5.786;2022-11-15T03:38:27;4.90;99.90
33803;DHT22;20110;53.120;5.786;2022-11-15T03:41:00;5.00;99.90
33803;DHT22;20110;53.120;5.786;2022-11-15T03:47:05;5.00;99.90
33803;DHT22;20110;53.120;5.786;2022-11-15T03:49:42;4.90;99.90
33803;DHT22;20110;53.120;5.786;2022-11-15T03:52:11;5.00;99.90
33803;DHT22;20110;53.120;5.786;2022-11-15T03:54:56;5.00;99.90
33803;DHT22;20110;53.120;5.786;2022-11-15T03:57:22;5.10;99.90
33803;DHT22;20110;53.120;5.786;2022-11-15T03:59:48;5.10;99.90
33803;DHT22;20110;53.120;5.786;2022-11-15T04:02:14;5.20;99.90
33803;DHT22;20110;53.120;5.786;2022-11-15T04:04:40;5.20;99.90
33803;DHT22;20110;53.120;5.786;2022-11-15T04:07:06;5.10;99.90
33803;DHT22;20110;53.120;5.786;2022-11-15T04:09:31;5.10;99.90
33803;DHT22;20110;53.120;5.786;2022-11-15T04:11:57;5.20;99.90
33803;DHT22;20110;53.120;5.786;2022-11-15T04:14:23;5.20;99.90
33803;DHT22;20110;53.120;5.786;2022-11-15T04:16:49;5.20;99.90
33803;DHT22;20110;53.120;5.786;2022-11-15T04:19:15;5.30;99.90
33803;DHT22;20110;53.120;5.786;2022-11-15T04:21:59;5.40;99.90
33803;DHT22;20110;53.120;5.786;2022-11-15T04:24:43;5.50;99.90
33803;DHT22;20110;53.120;5.786;2022-11-15T04:27:09;5.40;99.90
33803;DHT22;20110;53.120;5.786;2022-11-15T04:29:35;5.40;99.90
33803;DHT22;20110;53.120;5.786;2022-11-15T04:32:03;5.40;99.90
33803;DHT22;20110;53.120;5.786;2022-11-15T04:34:30;5.40;99.90
33803;DHT22;20110;53.120;5.786;2022-11-15T04:36:55;5.50;99.90
33803;DHT22;20110;53.120;5.786;2022-11-15T04:39:37;5.50;99.90
33803;DHT22;20110;53.120;5.786;2022-11-15T04:42:03;5.50;99.90
33803;DHT22;20110;53.120;5.786;2022-11-15T04:44:29;5.60;99.90
33803;DHT22;20110;53.120;5.786;2022-11-15T04:46:54;5.60;99.90
33803;DHT22;20110;53.120;5.786;2022-11-15T04:49:20;5.70;99.90
33803;DHT22;20110;53.120;5.786;2022-11-15T04:51:46;5.60;99.90
33803;DHT22;20110;53.120;5.786;2022-11-15T04:54:12;5.70;99.90
33803;DHT22;20110;53.120;5.786;2022-11-15T04:56:38;5.70;99.90
33803;DHT22;20110;53.120;5.786;2022-11-15T04:59:04;5.80;99.90
33803;DHT22;20110;53.120;5.786;2022-11-15T05:01:29;5.80;99.90
33803;DHT22;20110;53.120;5.786;2022-11-15T05:03:55;5.90;99.90
33803;DHT22;20110;53.120;5.786;2022-11-15T05:06:40;5.90;99.90
33803;DHT22;20110;53.120;5.786;2022-11-15T05:09:06;5.90;99.90
33803;DHT22;20110;53.120;5.786;2022-11-15T05:11:32;5.90;99.90
33803;DHT22;20110;53.120;5.786;2022-11-15T05:13:57;5.90;99.90
33803;DHT22;20110;53.120;5.786;2022-11-15T05:16:23;6.10;99.90
33803;DHT22;20110;53.120;5.786;2022-11-15T05:18:53;6.20;99.90
33803;DHT22;20110;53.120;5.786;2022-11-15T05:21:20;6.20;99.90
33803;DHT22;20110;53.120;5.786;2022-11-15T05:23:46;6.30;99.90
33803;DHT22;20110;53.120;5.786;2022-11-15T05:26:12;6.30;99.90
33803;DHT22;20110;53.120;5.786;2022-11-15T05:28:40;6.30;99.90
33803;DHT22;20110;53.120;5.786;2022-11-15T05:31:25;6.30;99.90
33803;DHT22;20110;53.120;5.786;2022-11-15T05:33:52;6.40;99.90
33803;DHT22;20110;53.120;5.786;2022-11-15T05:36:25;6.40;99.90
33803;DHT22;20110;53.120;5.786;2022-11-15T05:38:56;6.30;99.90
33803;DHT22;20110;53.120;5.786;2022-11-15T05:41:34;6.70;99.90
33803;DHT22;20110;53.120;5.786;2022-11-15T05:44:07;6.60;99.90
33803;DHT22;20110;53.120;5.786;2022-11-15T05:46:37;6.70;99.90
33803;DHT22;20110;53.120;5.786;2022-11-15T05:49:06;6.70;99.90
33803;DHT22;20110;53.120;5.786;2022-11-15T05:51:38;6.70;99.90
33803;DHT22;20110;53.120;5.786;2022-11-15T05:54:05;6.80;99.90
33803;DHT22;20110;53.120;5.786;2022-11-15T05:56:31;6.90;99.90
33803;DHT22;20110;53.120;5.786;2022-11-15T05:58:57;7.00;99.90
33803;DHT22;20110;53.120;5.786;2022-11-15T06:01:26;7.00;99.90
33803;DHT22;20110;53.120;5.786;2022-11-15T06:03:53;7.00;99.90
33803;DHT22;20110;53.120;5.786;2022-11-15T06:06:19;7.10;99.90
33803;DHT22;20110;53.120;5.786;2022-11-15T06:08:44;7.10;99.90
33803;DHT22;20110;53.120;5.786;2022-11-15T06:11:10;7.10;99.90
33803;DHT22;20110;53.120;5.786;2022-11-15T06:13:36;7.00;99.90
33803;DHT22;20110;53.120;5.786;2022-11-15T06:16:02;7.10;99.90
33803;DHT22;20110;53.120;5.786;2022-11-15T06:18:28;7.10;99.90
33803;DHT22;20110;53.120;5.786;2022-11-15T06:20:59;7.20;99.90
33803;DHT22;20110;53.120;5.786;2022-11-15T06:23:25;7.30;99.90
33803;DHT22;20110;53.120;5.786;2022-11-15T06:25:51;7.30;99.90
33803;DHT22;20110;53.120;5.786;2022-11-15T06:28:17;7.30;99.90
33803;DHT22;20110;53.120;5.786;2022-11-15T06:30:43;7.30;99.90
33803;DHT22;20110;53.120;5.786;2022-11-15T06:33:08;7.30;99.90
33803;DHT22;20110;53.120;5.786;2022-11-15T06:35:36;7.30;99.90
33803;DHT22;20110;53.120;5.786;2022-11-15T06:38:06;7.40;99.90
33803;DHT22;20110;53.120;5.786;2022-11-15T06:40:35;7.50;99.90
33803;DHT22;20110;53.120;5.786;2022-11-15T06:43:03;7.50;99.90
33803;DHT22;20110;53.120;5.786;2022-11-15T06:45:30;7.50;99.90
33803;DHT22;20110;53.120;5.786;2022-11-15T06:47:56;7.50;99.90
33803;DHT22;20110;53.120;5.786;2022-11-15T06:50:22;7.50;99.90
33803;DHT22;20110;53.120;5.786;2022-11-15T06:52:48;7.60;99.90
33803;DHT22;20110;53.120;5.786;2022-11-15T06:55:14;7.50;99.90
33803;DHT22;20110;53.120;5.786;2022-11-15T06:57:50;7.50;99.90
33803;DHT22;20110;53.120;5.786;2022-11-15T07:00:19;7.50;99.90
33803;DHT22;20110;53.120;5.786;2022-11-15T07:02:46;7.60;99.90
33803;DHT22;20110;53.120;5.786;2022-11-15T07:05:13;7.70;99.90
33803;DHT22;20110;53.120;5.786;2022-11-15T07:07:40;7.70;99.90
33803;DHT22;20110;53.120;5.786;2022-11-15T07:10:06;7.70;99.90
33803;DHT22;20110;53.120;5.786;2022-11-15T07:12:33;7.70;99.90
33803;DHT22;20110;53.120;5.786;2022-11-15T07:14:59;7.80;99.90
33803;DHT22;20110;53.120;5.786;2022-11-15T07:17:24;7.80;99.90
33803;DHT22;20110;53.120;5.786;2022-11-15T07:19:51;7.90;99.90
33803;DHT22;20110;53.120;5.786;2022-11-15T07:22:17;7.90;99.90
33803;DHT22;20110;53.120;5.786;2022-11-15T07:24:43;8.00;99.90
33803;DHT22;20110;53.120;5.786;2022-11-15T07:27:09;8.00;99.90
33803;DHT22;20110;53.120;5.786;2022-11-15T07:29:34;8.00;99.90
33803;DHT22;20110;53.120;5.786;2022-11-15T07:32:00;8.10;99.90
33803;DHT22;20110;53.120;5.786;2022-11-15T07:34:26;8.20;99.90
33803;DHT22;20110;53.120;5.786;2022-11-15T07:36:52;8.10;99.90
33803;DHT22;20110;53.120;5.786;2022-11-15T07:39:17;8.10;99.90
33803;DHT22;20110;53.120;5.786;2022-11-15T07:41:43;8.10;99.90
33803;DHT22;20110;53.120;5.786;2022-11-15T07:44:10;8.20;99.90
33803;DHT22;20110;53.120;5.786;2022-11-15T07:46:35;8.30;99.90
33803;DHT22;20110;53.120;5.786;2022-11-15T07:49:01;8.30;99.90
33803;DHT22;20110;53.120;5.786;2022-11-15T07:51:27;8.20;99.90
33803;DHT22;20110;53.120;5.786;2022-11-15T07:53:53;8.30;99.90
33803;DHT22;20110;53.120;5.786;2022-11-15T07:56:18;8.40;99.90
33803;DHT22;20110;53.120;5.786;2022-11-15T07:58:46;8.30;99.90
33803;DHT22;20110;53.120;5.786;2022-11-15T08:01:12;8.40;99.90
33803;DHT22;20110;53.120;5.786;2022-11-15T08:03:38;8.40;99.90
33803;DHT22;20110;53.120;5.786;2022-11-15T08:06:04;8.40;99.90
33803;DHT22;20110;53.120;5.786;2022-11-15T08:08:30;8.40;99.90
33803;DHT22;20110;53.120;5.786;2022-11-15T08:11:00;8.50;99.90
33803;DHT22;20110;53.120;5.786;2022-11-15T08:13:26;8.50;99.90
33803;DHT22;20110;53.120;5.786;2022-11-15T08:15:57;8.50;99.90
33803;DHT22;20110;53.120;5.786;2022-11-15T08:18:27;8.50;99.90
33803;DHT22;20110;53.120;5.786;2022-11-15T08:20:53;8.50;99.90
33803;DHT22;20110;53.120;5.786;2022-11-15T08:23:18;8.50;99.90
33803;DHT22;20110;53.120;5.786;2022-11-15T08:25:44;8.60;99.90
33803;DHT22;20110;53.120;5.786;2022-11-15T08:28:10;8.60;99.90
33803;DHT22;20110;53.120;5.786;2022-11-15T08:30:41;8.70;99.90
33803;DHT22;20110;53.120;5.786;2022-11-15T08:33:11;8.80;99.90
33803;DHT22;20110;53.120;5.786;2022-11-15T08:35:39;8.90;99.90
33803;DHT22;20110;53.120;5.786;2022-11-15T08:38:06;9.00;99.90
33803;DHT22;20110;53.120;5.786;2022-11-15T08:40:32;9.00;99.90
33803;DHT22;20110;53.120;5.786;2022-11-15T08:42:58;8.90;99.90
33803;DHT22;20110;53.120;5.786;2022-11-15T08:45:24;9.00;99.90
33803;DHT22;20110;53.120;5.786;2022-11-15T08:47:50;8.90;99.90
33803;DHT22;20110;53.120;5.786;2022-11-15T08:50:16;9.00;99.90
33803;DHT22;20110;53.120;5.786;2022-11-15T08:52:42;9.00;99.90
33803;DHT22;20110;53.120;5.786;2022-11-15T08:55:08;8.90;99.90
33803;DHT22;20110;53.120;5.786;2022-11-15T08:57:34;9.00;99.90
33803;DHT22;20110;53.120;5.786;2022-11-15T08:59:59;9.00;99.90
33803;DHT22;20110;53.120;5.786;2022-11-15T09:02:25;8.90;99.90
33803;DHT22;20110;53.120;5.786;2022-11-15T09:04:51;9.00;99.90
33803;DHT22;20110;53.120;5.786;2022-11-15T09:07:17;9.00;99.90
33803;DHT22;20110;53.120;5.786;2022-11-15T09:09:43;9.10;99.90
33803;DHT22;20110;53.120;5.786;2022-11-15T09:12:08;9.00;99.90
33803;DHT22;20110;53.120;5.786;2022-11-15T09:14:35;9.10;99.90
33803;DHT22;20110;53.120;5.786;2022-11-15T09:17:01;9.10;99.90
33803;DHT22;20110;53.120;5.786;2022-11-15T09:19:27;9.10;99.90
33803;DHT22;20110;53.120;5.786;2022-11-15T09:21:53;9.10;99.90
33803;DHT22;20110;53.120;5.786;2022-11-15T09:24:19;9.10;99.90
33803;DHT22;20110;53.120;5.786;2022-11-15T09:26:46;9.20;99.90
33803;DHT22;20110;53.120;5.786;2022-11-15T09:29:12;9.10;99.90
33803;DHT22;20110;53.120;5.786;2022-11-15T09:31:38;9.20;99.90
33803;DHT22;20110;53.120;5.786;2022-11-15T09:34:03;9.20;99.90
33803;DHT22;20110;53.120;5.786;2022-11-15T09:36:29;9.10;99.90
33803;DHT22;20110;53.120;5.786;2022-11-15T09:38:57;9.10;99.90
33803;DHT22;20110;53.120;5.786;2022-11-15T09:44:33;9.00;99.90
33803;DHT22;20110;53.120;5.786;2022-11-15T09:47:35;8.90;99.90
33803;DHT22;20110;53.120;5.786;2022-11-15T09:50:10;9.00;99.90
33803;DHT22;20110;53.120;5.786;2022-11-15T09:52:39;9.00;99.90
33803;DHT22;20110;53.120;5.786;2022-11-15T09:55:10;9.10;99.90
33803;DHT22;20110;53.120;5.786;2022-11-15T09:57:57;9.20;99.90
33803;DHT22;20110;53.120;5.786;2022-11-15T10:00:44;9.10;99.90
33803;DHT22;20110;53.120;5.786;2022-11-15T10:03:25;9.20;99.90
33803;DHT22;20110;53.120;5.786;2022-11-15T10:06:12;9.30;99.90
33803;DHT22;20110;53.120;5.786;2022-11-15T10:09:11;9.50;99.90
33803;DHT22;20110;53.120;5.786;2022-11-15T10:11:41;9.50;99.90
33803;DHT22;20110;53.120;5.786;2022-11-15T10:14:20;9.60;99.90
33803;DHT22;20110;53.120;5.786;2022-11-15T10:22:51;9.70;99.90
33803;DHT22;20110;53.120;5.786;2022-11-15T10:27:55;9.80;99.90
33803;DHT22;20110;53.120;5.786;2022-11-15T10:33:10;9.90;99.90
33803;DHT22;20110;53.120;5.786;2022-11-15T10:43:44;10.00;99.90
33803;DHT22;20110;53.120;5.786;2022-11-15T10:46:23;9.90;99.90
33803;DHT22;20110;53.120;5.786;2022-11-15T10:48:50;9.90;99.90
33803;DHT22;20110;53.120;5.786;2022-11-15T10:51:27;9.90;99.90
33803;DHT22;20110;53.120;5.786;2022-11-15T10:53:57;10.10;99.90
33803;DHT22;20110;53.120;5.786;2022-11-15T10:56:26;10.20;99.90
33803;DHT22;20110;53.120;5.786;2022-11-15T10:58:56;10.20;99.90
33803;DHT22;20110;53.120;5.786;2022-11-15T11:01:25;10.20;99.90
33803;DHT22;20110;53.120;5.786;2022-11-15T11:04:04;10.10;99.90
33803;DHT22;20110;53.120;5.786;2022-11-15T11:09:38;10.20;99.90
33803;DHT22;20110;53.120;5.786;2022-11-15T11:12:11;10.20;99.90
33803;DHT22;20110;53.120;5.786;2022-11-15T11:14:38;10.30;99.90
33803;DHT22;20110;53.120;5.786;2022-11-15T11:23:00;10.20;99.90
33803;DHT22;20110;53.120;5.786;2022-11-15T11:25:48;10.30;99.90
33803;DHT22;20110;53.120;5.786;2022-11-15T11:45:41;10.30;99.90
33803;DHT22;20110;53.120;5.786;2022-11-15T11:54:19;11.00;99.90
33803;DHT22;20110;53.120;5.786;2022-11-15T11:56:51;10.90;99.90
33803;DHT22;20110;53.120;5.786;2022-11-15T12:02:35;11.10;99.90
33803;DHT22;20110;53.120;5.786;2022-11-15T12:05:40;11.00;99.90
33803;DHT22;20110;53.120;5.786;2022-11-15T12:11:57;10.60;99.90
33803;DHT22;20110;53.120;5.786;2022-11-15T12:17:36;10.70;99.90
33803;DHT22;20110;53.120;5.786;2022-11-15T12:20:17;10.80;99.90
33803;DHT22;20110;53.120;5.786;2022-11-15T12:25:56;11.10;99.90
33803;DHT22;20110;53.120;5.786;2022-11-15T12:36:52;11.10;99.90
33803;DHT22;20110;53.120;5.786;2022-11-15T12:39:18;11.10;99.90
33803;DHT22;20110;53.120;5.786;2022-11-15T12:47:25;11.10;99.90
33803;DHT22;20110;53.120;5.786;2022-11-15T12:49:52;11.10;99.90
33803;DHT22;20110;53.120;5.786;2022-11-15T12:52:19;11.00;99.90
33803;DHT22;20110;53.120;5.786;2022-11-15T12:54:56;10.90;99.90
33803;DHT22;20110;53.120;5.786;2022-11-15T12:57:35;10.80;99.90
33803;DHT22;20110;53.120;5.786;2022-11-15T13:02:40;10.70;99.90
33803;DHT22;20110;53.120;5.786;2022-11-15T13:13:01;10.80;99.90
33803;DHT22;20110;53.120;5.786;2022-11-15T13:15:54;10.70;99.90
33803;DHT22;20110;53.120;5.786;2022-11-15T13:18:32;10.60;99.90
33803;DHT22;20110;53.120;5.786;2022-11-15T13:21:05;10.50;99.90
33803;DHT22;20110;53.120;5.786;2022-11-15T13:24:04;10.60;99.90
33803;DHT22;20110;53.120;5.786;2022-11-15T13:26:31;10.60;99.90
33803;DHT22;20110;53.120;5.786;2022-11-15T13:28:57;10.60;99.90
33803;DHT22;20110;53.120;5.786;2022-11-15T13:31:28;10.70;99.90
33803;DHT22;20110;53.120;5.786;2022-11-15T13:34:02;10.60;99.90
33803;DHT22;20110;53.120;5.786;2022-11-15T13:36:41;10.50;99.90
33803;DHT22;20110;53.120;5.786;2022-11-15T13:39:27;10.50;99.90
33803;DHT22;20110;53.120;5.786;2022-11-15T13:41:56;10.40;99.90
33803;DHT22;20110;53.120;5.786;2022-11-15T13:44:29;10.40;99.90
33803;DHT22;20110;53.120;5.786;2022-11-15T13:47:02;10.40;99.90
33803;DHT22;20110;53.120;5.786;2022-11-15T13:49:38;10.30;99.90
33803;DHT22;20110;53.120;5.786;2022-11-15T13:52:07;10.30;99.90
33803;DHT22;20110;53.120;5.786;2022-11-15T13:55:02;10.30;99.90
33803;DHT22;20110;53.120;5.786;2022-11-15T13:57:39;10.30;99.90
33803;DHT22;20110;53.120;5.786;2022-11-15T14:00:26;10.20;99.90
33803;DHT22;20110;53.120;5.786;2022-11-15T14:05:43;10.00;99.90
33803;DHT22;20110;53.120;5.786;2022-11-15T14:08:24;9.90;99.90
33803;DHT22;20110;53.120;5.786;2022-11-15T14:11:06;9.80;99.90
33803;DHT22;20110;53.120;5.786;2022-11-15T14:16:37;9.80;99.90
33803;DHT22;20110;53.120;5.786;2022-11-15T14:19:06;9.80;99.90
33803;DHT22;20110;53.120;5.786;2022-11-15T14:21:35;9.70;99.90
33803;DHT22;20110;53.120;5.786;2022-11-15T14:24:21;9.60;99.90
33803;DHT22;20110;53.120;5.786;2022-11-15T14:26:48;9.50;99.90
33803;DHT22;20110;53.120;5.786;2022-11-15T14:29:25;9.50;99.90
33803;DHT22;20110;53.120;5.786;2022-11-15T14:31:53;9.50;99.90
33803;DHT22;20110;53.120;5.786;2022-11-15T14:34:32;9.40;99.90
33803;DHT22;20110;53.120;5.786;2022-11-15T14:36:58;9.30;99.90
33803;DHT22;20110;53.120;5.786;2022-11-15T14:39:24;9.30;99.90
33803;DHT22;20110;53.120;5.786;2022-11-15T14:41:50;9.20;99.90
33803;DHT22;20110;53.120;5.786;2022-11-15T14:44:16;9.20;99.90
33803;DHT22;20110;53.120;5.786;2022-11-15T14:46:44;9.20;99.90
33803;DHT22;20110;53.120;5.786;2022-11-15T14:49:09;9.10;99.90
33803;DHT22;20110;53.120;5.786;2022-11-15T14:51:35;9.10;99.90
33803;DHT22;20110;53.120;5.786;2022-11-15T14:54:01;9.00;99.90
33803;DHT22;20110;53.120;5.786;2022-11-15T14:56:27;9.00;99.90
33803;DHT22;20110;53.120;5.786;2022-11-15T14:58:52;9.00;99.90
33803;DHT22;20110;53.120;5.786;2022-11-15T15:01:25;9.00;99.90
33803;DHT22;20110;53.120;5.786;2022-11-15T15:03:52;9.00;99.90
33803;DHT22;20110;53.120;5.786;2022-11-15T15:06:22;9.00;99.90
33803;DHT22;20110;53.120;5.786;2022-11-15T15:08:48;9.00;99.90
33803;DHT22;20110;53.120;5.786;2022-11-15T15:11:25;9.00;99.90
33803;DHT22;20110;53.120;5.786;2022-11-15T15:13:54;8.90;99.90
33803;DHT22;20110;53.120;5.786;2022-11-15T15:16:23;8.80;99.90
33803;DHT22;20110;53.120;5.786;2022-11-15T15:18:53;8.80;99.90
33803;DHT22;20110;53.120;5.786;2022-11-15T15:21:24;8.80;99.90
33803;DHT22;20110;53.120;5.786;2022-11-15T15:23:53;8.70;99.90
33803;DHT22;20110;53.120;5.786;2022-11-15T15:26:20;8.60;99.90
33803;DHT22;20110;53.120;5.786;2022-11-15T15:28:46;8.60;99.90
33803;DHT22;20110;53.120;5.786;2022-11-15T15:31:14;8.60;99.90
33803;DHT22;20110;53.120;5.786;2022-11-15T15:33:40;8.50;99.90
33803;DHT22;20110;53.120;5.786;2022-11-15T15:36:11;8.50;99.90
33803;DHT22;20110;53.120;5.786;2022-11-15T15:38:42;8.40;99.90
33803;DHT22;20110;53.120;5.786;2022-11-15T15:41:12;8.40;99.90
33803;DHT22;20110;53.120;5.786;2022-11-15T15:43:39;8.40;99.90
33803;DHT22;20110;53.120;5.786;2022-11-15T15:46:14;8.30;99.90
33803;DHT22;20110;53.120;5.786;2022-11-15T15:48:41;8.30;99.90
33803;DHT22;20110;53.120;5.786;2022-11-15T15:51:07;8.20;99.90
33803;DHT22;20110;53.120;5.786;2022-11-15T15:53:34;8.30;99.90
33803;DHT22;20110;53.120;5.786;2022-11-15T15:56:00;8.20;99.90
33803;DHT22;20110;53.120;5.786;2022-11-15T15:58:26;8.20;99.90
33803;DHT22;20110;53.120;5.786;2022-11-15T16:00:52;8.20;99.90
33803;DHT22;20110;53.120;5.786;2022-11-15T16:03:18;8.10;99.90
33803;DHT22;20110;53.120;5.786;2022-11-15T16:05:44;8.20;99.90
33803;DHT22;20110;53.120;5.786;2022-11-15T16:08:20;8.10;99.90
33803;DHT22;20110;53.120;5.786;2022-11-15T16:10:50;8.20;99.90
33803;DHT22;20110;53.120;5.786;2022-11-15T16:13:15;8.40;99.90
33803;DHT22;20110;53.120;5.786;2022-11-15T16:15:43;8.40;99.90
33803;DHT22;20110;53.120;5.786;2022-11-15T16:18:15;8.50;99.90
33803;DHT22;20110;53.120;5.786;2022-11-15T16:20:44;8.60;99.90
33803;DHT22;20110;53.120;5.786;2022-11-15T16:23:13;8.70;99.90
33803;DHT22;20110;53.120;5.786;2022-11-15T16:25:50;8.80;99.90
33803;DHT22;20110;53.120;5.786;2022-11-15T16:28:23;8.80;99.90
33803;DHT22;20110;53.120;5.786;2022-11-15T16:31:08;8.90;99.90
33803;DHT22;20110;53.120;5.786;2022-11-15T16:33:35;8.90;99.90
33803;DHT22;20110;53.120;5.786;2022-11-15T16:36:02;9.00;99.90
33803;DHT22;20110;53.120;5.786;2022-11-15T16:38:30;9.00;99.90
33803;DHT22;20110;53.120;5.786;2022-11-15T16:40:56;9.00;99.90
33803;DHT22;20110;53.120;5.786;2022-11-15T16:43:22;9.10;99.90
33803;DHT22;20110;53.120;5.786;2022-11-15T16:45:49;9.10;99.90
33803;DHT22;20110;53.120;5.786;2022-11-15T16:48:24;8.80;99.90
33803;DHT22;20110;53.120;5.786;2022-11-15T16:50:58;8.80;99.90
33803;DHT22;20110;53.120;5.786;2022-11-15T16:53:25;8.90;99.90
33803;DHT22;20110;53.120;5.786;2022-11-15T16:55:52;8.80;99.90
33803;DHT22;20110;53.120;5.786;2022-11-15T16:58:20;9.00;99.90
33803;DHT22;20110;53.120;5.786;2022-11-15T17:00:50;9.00;99.90
33803;DHT22;20110;53.120;5.786;2022-11-15T17:03:17;9.00;99.90
33803;DHT22;20110;53.120;5.786;2022-11-15T17:05:43;9.10;99.90
33803;DHT22;20110;53.120;5.786;2022-11-15T17:08:09;9.10;99.90
33803;DHT22;20110;53.120;5.786;2022-11-15T17:10:38;8.90;99.90
33803;DHT22;20110;53.120;5.786;2022-11-15T17:13:12;9.00;99.90
33803;DHT22;20110;53.120;5.786;2022-11-15T17:15:40;9.00;99.90
33803;DHT22;20110;53.120;5.786;2022-11-15T17:18:12;9.10;99.90
33803;DHT22;20110;53.120;5.786;2022-11-15T17:20:40;9.10;99.90
33803;DHT22;20110;53.120;5.786;2022-11-15T17:23:12;9.20;99.90
33803;DHT22;20110;53.120;5.786;2022-11-15T17:25:38;9.30;99.90
33803;DHT22;20110;53.120;5.786;2022-11-15T17:28:04;9.50;99.90
33803;DHT22;20110;53.120;5.786;2022-11-15T17:30:30;9.60;99.90
33803;DHT22;20110;53.120;5.786;2022-11-15T17:32:56;9.60;99.90
33803;DHT22;20110;53.120;5.786;2022-11-15T17:35:22;9.70;99.90
33803;DHT22;20110;53.120;5.786;2022-11-15T17:37:47;9.70;99.90
33803;DHT22;20110;53.120;5.786;2022-11-15T17:40:13;9.70;99.90
33803;DHT22;20110;53.120;5.786;2022-11-15T17:42:40;9.70;99.90
33803;DHT22;20110;53.120;5.786;2022-11-15T17:45:07;9.70;99.90
33803;DHT22;20110;53.120;5.786;2022-11-15T17:47:34;9.60;99.90
33803;DHT22;20110;53.120;5.786;2022-11-15T17:50:00;9.70;99.90
33803;DHT22;20110;53.120;5.786;2022-11-15T17:52:26;9.70;99.90
33803;DHT22;20110;53.120;5.786;2022-11-15T17:54:52;9.70;99.90
33803;DHT22;20110;53.120;5.786;2022-11-15T17:57:19;9.70;99.90
33803;DHT22;20110;53.120;5.786;2022-11-15T17:59:44;9.80;99.90
33803;DHT22;20110;53.120;5.786;2022-11-15T18:02:11;9.80;99.90